sensor_id;sensor_type;location;lat;lon;timestamp;P1;durP1;ratioP1;P2;durP2;ratioP2
9950;SDS011;24074;49.254;6.702;2024-01-10T00:00:16;7.37;;;5.00;;
9950;SDS011;24074;49.254;6.702;2024-01-10T00:02:42;7.23;;;5.20;;
9950;SDS011;24074;49.254;6.702;2024-01-10T00:05:07;6.70;;;4.83;;
9950;SDS011;24074;49.254;6.702;2024-01-10T00:07:33;6.37;;;4.37;;
9950;SDS011;24074;49.254;6.702;2024-01-10T00:09:58;6.83;;;4.27;;
9950;SDS011;24074;49.254;6.702;2024-01-10T00:12:26;6.77;;;4.80;;
9950;SDS011;24074;49.254;6.702;2024-01-10T00:14:51;9.87;;;5.23;;
9950;SDS011;24074;49.254;6.702;2024-01-10T00:17:17;6.37;;;4.47;;
9950;SDS011;24074;49.254;6.702;2024-01-10T00:19:48;6.90;;;4.80;;
9950;SDS011;24074;49.254;6.702;2024-01-10T00:22:14;7.83;;;4.90;;
9950;SDS011;24074;49.254;6.702;2024-01-10T00:24:39;6.37;;;4.73;;
9950;SDS011;24074;49.254;6.702;2024-01-10T00:27:05;7.07;;;4.70;;
9950;SDS011;24074;49.254;6.702;2024-01-10T00:29:30;6.53;;;4.57;;
9950;SDS011;24074;49.254;6.702;2024-01-10T00:31:56;7.20;;;4.87;;
9950;SDS011;24074;49.254;6.702;2024-01-10T00:34:24;6.57;;;4.40;;
9950;SDS011;24074;49.254;6.702;2024-01-10T00:36:50;8.23;;;4.77;;
9950;SDS011;24074;49.254;6.702;2024-01-10T00:39:15;7.03;;;4.83;;
9950;SDS011;24074;49.254;6.702;2024-01-10T00:41:41;7.33;;;5.20;;
9950;SDS011;24074;49.254;6.702;2024-01-10T00:44:06;8.33;;;5.07;;
9950;SDS011;24074;49.254;6.702;2024-01-10T00:46:32;7.20;;;4.60;;
9950;SDS011;24074;49.254;6.702;2024-01-10T00:48:57;7.37;;;5.13;;
9950;SDS011;24074;49.254;6.702;2024-01-10T00:51:23;5.60;;;4.27;;
9950;SDS011;24074;49.254;6.702;2024-01-10T00:53:48;5.83;;;4.53;;
9950;SDS011;24074;49.254;6.702;2024-01-10T00:56:14;7.30;;;4.70;;
9950;SDS011;24074;49.254;6.702;2024-01-10T00:58:39;7.20;;;4.80;;
9950;SDS011;24074;49.254;6.702;2024-01-10T01:01:06;8.17;;;4.67;;
9950;SDS011;24074;49.254;6.702;2024-01-10T01:03:32;6.47;;;4.10;;
9950;SDS011;24074;49.254;6.702;2024-01-10T01:05:57;7.17;;;4.97;;
9950;SDS011;24074;49.254;6.702;2024-01-10T01:08:23;7.03;;;4.90;;
9950;SDS011;24074;49.254;6.702;2024-01-10T01:10:48;7.07;;;4.90;;
9950;SDS011;24074;49.254;6.702;2024-01-10T01:13:14;7.60;;;4.80;;
9950;SDS011;24074;49.254;6.702;2024-01-10T01:15:39;7.50;;;5.03;;
9950;SDS011;24074;49.254;6.702;2024-01-10T01:18:05;7.57;;;4.83;;
9950;SDS011;24074;49.254;6.702;2024-01-10T01:20:31;7.80;;;5.00;;
9950;SDS011;24074;49.254;6.702;2024-01-10T01:22:56;7.20;;;5.20;;
9950;SDS011;24074;49.254;6.702;2024-01-10T01:25:22;10.30;;;6.23;;
9950;SDS011;24074;49.254;6.702;2024-01-10T01:27:47;8.47;;;5.30;;
9950;SDS011;24074;49.254;6.702;2024-01-10T01:30:13;8.07;;;5.67;;
9950;SDS011;24074;49.254;6.702;2024-01-10T01:32:38;7.20;;;5.27;;
9950;SDS011;24074;49.254;6.702;2024-01-10T01:35:04;8.27;;;5.57;;
9950;SDS011;24074;49.254;6.702;2024-01-10T01:37:30;9.43;;;5.03;;
9950;SDS011;24074;49.254;6.702;2024-01-10T01:39:55;7.83;;;5.03;;
9950;SDS011;24074;49.254;6.702;2024-01-10T01:42:21;7.60;;;5.10;;
9950;SDS011;24074;49.254;6.702;2024-01-10T01:44:46;7.17;;;5.20;;
9950;SDS011;24074;49.254;6.702;2024-01-10T01:47:12;8.07;;;5.40;;
9950;SDS011;24074;49.254;6.702;2024-01-10T01:49:38;6.27;;;4.30;;
9950;SDS011;24074;49.254;6.702;2024-01-10T01:52:03;7.90;;;5.20;;
9950;SDS011;24074;49.254;6.702;2024-01-10T01:54:30;6.83;;;4.77;;
9950;SDS011;24074;49.254;6.702;2024-01-10T01:56:58;6.10;;;4.67;;
9950;SDS011;24074;49.254;6.702;2024-01-10T01:59:26;7.23;;;5.00;;
9950;SDS011;24074;49.254;6.702;2024-01-10T02:01:52;6.83;;;5.30;;
9950;SDS011;24074;49.254;6.702;2024-01-10T02:04:20;7.53;;;5.57;;
9950;SDS011;24074;49.254;6.702;2024-01-10T02:06:45;8.10;;;5.13;;
9950;SDS011;24074;49.254;6.702;2024-01-10T02:09:11;7.03;;;4.93;;
9950;SDS011;24074;49.254;6.702;2024-01-10T02:11:37;9.27;;;5.40;;
9950;SDS011;24074;49.254;6.702;2024-01-10T02:14:02;8.23;;;5.67;;
9950;SDS011;24074;49.254;6.702;2024-01-10T02:16:28;8.47;;;5.40;;
9950;SDS011;24074;49.254;6.702;2024-01-10T02:18:54;8.13;;;5.13;;
9950;SDS011;24074;49.254;6.702;2024-01-10T02:21:20;9.30;;;5.30;;
9950;SDS011;24074;49.254;6.702;2024-01-10T02:23:46;7.57;;;5.43;;
9950;SDS011;24074;49.254;6.702;2024-01-10T02:26:12;7.93;;;5.50;;
9950;SDS011;24074;49.254;6.702;2024-01-10T02:28:39;7.70;;;5.30;;
9950;SDS011;24074;49.254;6.702;2024-01-10T02:31:04;7.93;;;5.40;;
9950;SDS011;24074;49.254;6.702;2024-01-10T02:33:31;6.83;;;5.23;;
9950;SDS011;24074;49.254;6.702;2024-01-10T02:35:57;8.77;;;5.27;;
9950;SDS011;24074;49.254;6.702;2024-01-10T02:38:22;8.13;;;5.63;;
9950;SDS011;24074;49.254;6.702;2024-01-10T02:40:48;8.03;;;5.07;;
9950;SDS011;24074;49.254;6.702;2024-01-10T02:43:14;8.07;;;5.47;;
9950;SDS011;24074;49.254;6.702;2024-01-10T02:45:40;7.67;;;5.80;;
9950;SDS011;24074;49.254;6.702;2024-01-10T02:48:06;7.63;;;5.43;;
9950;SDS011;24074;49.254;6.702;2024-01-10T02:50:32;7.63;;;5.37;;
9950;SDS011;24074;49.254;6.702;2024-01-10T02:52:57;7.77;;;5.47;;
9950;SDS011;24074;49.254;6.702;2024-01-10T02:55:23;7.50;;;5.50;;
9950;SDS011;24074;49.254;6.702;2024-01-10T02:57:49;7.07;;;4.93;;
9950;SDS011;24074;49.254;6.702;2024-01-10T03:00:14;8.10;;;5.27;;
9950;SDS011;24074;49.254;6.702;2024-01-10T03:02:40;7.67;;;5.47;;
9950;SDS011;24074;49.254;6.702;2024-01-10T03:05:06;7.73;;;5.50;;
9950;SDS011;24074;49.254;6.702;2024-01-10T03:07:32;10.37;;;5.73;;
9950;SDS011;24074;49.254;6.702;2024-01-10T03:09:57;8.77;;;5.80;;
9950;SDS011;24074;49.254;6.702;2024-01-10T03:12:23;8.53;;;5.60;;
9950;SDS011;24074;49.254;6.702;2024-01-10T03:14:48;8.07;;;6.03;;
9950;SDS011;24074;49.254;6.702;2024-01-10T03:17:14;8.23;;;5.70;;
9950;SDS011;24074;49.254;6.702;2024-01-10T03:19:39;7.97;;;5.60;;
9950;SDS011;24074;49.254;6.702;2024-01-10T03:22:08;9.00;;;5.60;;
9950;SDS011;24074;49.254;6.702;2024-01-10T03:24:35;7.97;;;5.50;;
9950;SDS011;24074;49.254;6.702;2024-01-10T03:27:01;7.97;;;5.93;;
9950;SDS011;24074;49.254;6.702;2024-01-10T03:29:27;8.73;;;6.00;;
9950;SDS011;24074;49.254;6.702;2024-01-10T03:31:52;8.37;;;5.43;;
9950;SDS011;24074;49.254;6.702;2024-01-10T03:34:18;7.70;;;5.73;;
9950;SDS011;24074;49.254;6.702;2024-01-10T03:36:44;8.97;;;5.63;;
9950;SDS011;24074;49.254;6.702;2024-01-10T03:39:09;8.37;;;5.70;;
9950;SDS011;24074;49.254;6.702;2024-01-10T03:41:35;8.60;;;6.20;;
9950;SDS011;24074;49.254;6.702;2024-01-10T03:44:00;9.20;;;6.23;;
9950;SDS011;24074;49.254;6.702;2024-01-10T03:46:26;9.63;;;5.97;;
9950;SDS011;24074;49.254;6.702;2024-01-10T03:48:52;8.13;;;5.97;;
9950;SDS011;24074;49.254;6.702;2024-01-10T03:51:18;8.57;;;5.90;;
9950;SDS011;24074;49.254;6.702;2024-01-10T03:53:44;10.10;;;6.27;;
9950;SDS011;24074;49.254;6.702;2024-01-10T03:56:16;8.53;;;5.50;;
9950;SDS011;24074;49.254;6.702;2024-01-10T03:58:42;7.60;;;5.70;;
9950;SDS011;24074;49.254;6.702;2024-01-10T04:01:07;8.13;;;5.87;;
9950;SDS011;24074;49.254;6.702;2024-01-10T04:03:34;8.33;;;5.93;;
9950;SDS011;24074;49.254;6.702;2024-01-10T04:06:00;8.13;;;6.00;;
9950;SDS011;24074;49.254;6.702;2024-01-10T04:08:26;7.97;;;5.67;;
9950;SDS011;24074;49.254;6.702;2024-01-10T04:10:52;8.73;;;5.67;;
9950;SDS011;24074;49.254;6.702;2024-01-10T04:13:17;8.43;;;5.97;;
9950;SDS011;24074;49.254;6.702;2024-01-10T04:15:43;10.17;;;6.07;;
9950;SDS011;24074;49.254;6.702;2024-01-10T04:18:08;7.73;;;5.60;;
9950;SDS011;24074;49.254;6.702;2024-01-10T04:20:34;9.50;;;6.33;;
9950;SDS011;24074;49.254;6.702;2024-01-10T04:22:59;8.53;;;6.20;;
9950;SDS011;24074;49.254;6.702;2024-01-10T04:25:25;8.87;;;5.90;;
9950;SDS011;24074;49.254;6.702;2024-01-10T04:27:50;9.90;;;6.20;;
9950;SDS011;24074;49.254;6.702;2024-01-10T04:30:20;8.73;;;6.00;;
9950;SDS011;24074;49.254;6.702;2024-01-10T04:32:46;6.73;;;5.57;;
9950;SDS011;24074;49.254;6.702;2024-01-10T04:35:11;12.83;;;6.30;;
9950;SDS011;24074;49.254;6.702;2024-01-10T04:37:37;9.20;;;6.30;;
9950;SDS011;24074;49.254;6.702;2024-01-10T04:40:03;10.33;;;6.70;;
9950;SDS011;24074;49.254;6.702;2024-01-10T04:42:29;10.93;;;6.33;;
9950;SDS011;24074;49.254;6.702;2024-01-10T04:44:55;9.80;;;5.93;;
9950;SDS011;24074;49.254;6.702;2024-01-10T04:47:21;9.90;;;6.63;;
9950;SDS011;24074;49.254;6.702;2024-01-10T04:49:46;10.20;;;6.50;;
9950;SDS011;24074;49.254;6.702;2024-01-10T04:52:12;9.50;;;6.20;;
9950;SDS011;24074;49.254;6.702;2024-01-10T04:54:37;8.43;;;6.60;;
9950;SDS011;24074;49.254;6.702;2024-01-10T04:57:03;9.87;;;6.00;;
9950;SDS011;24074;49.254;6.702;2024-01-10T04:59:29;11.60;;;6.20;;
9950;SDS011;24074;49.254;6.702;2024-01-10T05:01:55;9.23;;;6.40;;
9950;SDS011;24074;49.254;6.702;2024-01-10T05:04:20;9.50;;;6.20;;
9950;SDS011;24074;49.254;6.702;2024-01-10T05:06:46;10.60;;;6.27;;
9950;SDS011;24074;49.254;6.702;2024-01-10T05:09:12;9.40;;;6.63;;
9950;SDS011;24074;49.254;6.702;2024-01-10T05:11:37;10.43;;;6.90;;
9950;SDS011;24074;49.254;6.702;2024-01-10T05:14:03;9.63;;;6.67;;
9950;SDS011;24074;49.254;6.702;2024-01-10T05:16:29;9.57;;;6.87;;
9950;SDS011;24074;49.254;6.702;2024-01-10T05:18:54;10.90;;;7.07;;
9950;SDS011;24074;49.254;6.702;2024-01-10T05:21:20;11.77;;;7.27;;
9950;SDS011;24074;49.254;6.702;2024-01-10T05:23:46;14.07;;;8.70;;
9950;SDS011;24074;49.254;6.702;2024-01-10T05:26:11;14.67;;;9.10;;
9950;SDS011;24074;49.254;6.702;2024-01-10T05:28:37;12.47;;;7.87;;
9950;SDS011;24074;49.254;6.702;2024-01-10T05:31:04;11.53;;;7.77;;
9950;SDS011;24074;49.254;6.702;2024-01-10T05:33:29;12.13;;;7.93;;
9950;SDS011;24074;49.254;6.702;2024-01-10T05:35:55;12.07;;;8.13;;
9950;SDS011;24074;49.254;6.702;2024-01-10T05:38:20;11.33;;;7.50;;
9950;SDS011;24074;49.254;6.702;2024-01-10T05:40:46;11.27;;;7.17;;
9950;SDS011;24074;49.254;6.702;2024-01-10T05:43:12;11.10;;;7.07;;
9950;SDS011;24074;49.254;6.702;2024-01-10T05:45:37;10.50;;;7.20;;
9950;SDS011;24074;49.254;6.702;2024-01-10T05:48:03;9.63;;;6.87;;
9950;SDS011;24074;49.254;6.702;2024-01-10T05:50:32;9.70;;;6.50;;
9950;SDS011;24074;49.254;6.702;2024-01-10T05:52:58;12.13;;;7.10;;
9950;SDS011;24074;49.254;6.702;2024-01-10T05:55:23;11.77;;;7.43;;
9950;SDS011;24074;49.254;6.702;2024-01-10T05:57:50;9.47;;;6.80;;
9950;SDS011;24074;49.254;6.702;2024-01-10T06:00:15;9.90;;;6.67;;
9950;SDS011;24074;49.254;6.702;2024-01-10T06:02:42;11.43;;;7.80;;
9950;SDS011;24074;49.254;6.702;2024-01-10T06:05:08;9.23;;;6.90;;
9950;SDS011;24074;49.254;6.702;2024-01-10T06:07:38;9.83;;;7.07;;
9950;SDS011;24074;49.254;6.702;2024-01-10T06:10:05;10.13;;;6.27;;
9950;SDS011;24074;49.254;6.702;2024-01-10T06:12:31;10.40;;;6.80;;
9950;SDS011;24074;49.254;6.702;2024-01-10T06:14:57;10.47;;;7.10;;
9950;SDS011;24074;49.254;6.702;2024-01-10T06:17:22;11.67;;;7.50;;
9950;SDS011;24074;49.254;6.702;2024-01-10T06:19:49;9.87;;;7.40;;
9950;SDS011;24074;49.254;6.702;2024-01-10T06:22:15;11.10;;;6.93;;
9950;SDS011;24074;49.254;6.702;2024-01-10T06:24:41;11.30;;;7.43;;
9950;SDS011;24074;49.254;6.702;2024-01-10T06:27:07;12.97;;;7.13;;
9950;SDS011;24074;49.254;6.702;2024-01-10T06:29:33;11.47;;;7.80;;
9950;SDS011;24074;49.254;6.702;2024-01-10T06:31:59;9.60;;;6.80;;
9950;SDS011;24074;49.254;6.702;2024-01-10T06:34:26;10.97;;;7.03;;
9950;SDS011;24074;49.254;6.702;2024-01-10T06:36:54;10.67;;;7.60;;
9950;SDS011;24074;49.254;6.702;2024-01-10T06:39:20;11.00;;;7.53;;
9950;SDS011;24074;49.254;6.702;2024-01-10T06:41:46;11.47;;;7.90;;
9950;SDS011;24074;49.254;6.702;2024-01-10T06:44:15;11.53;;;7.20;;
9950;SDS011;24074;49.254;6.702;2024-01-10T06:46:42;11.83;;;7.30;;
9950;SDS011;24074;49.254;6.702;2024-01-10T06:49:09;11.23;;;7.63;;
9950;SDS011;24074;49.254;6.702;2024-01-10T06:51:34;11.30;;;7.40;;
9950;SDS011;24074;49.254;6.702;2024-01-10T06:54:00;11.70;;;6.90;;
9950;SDS011;24074;49.254;6.702;2024-01-10T06:56:28;11.97;;;8.03;;
9950;SDS011;24074;49.254;6.702;2024-01-10T06:58:54;11.07;;;7.40;;
9950;SDS011;24074;49.254;6.702;2024-01-10T07:01:20;11.97;;;7.53;;
9950;SDS011;24074;49.254;6.702;2024-01-10T07:03:47;11.63;;;7.67;;
9950;SDS011;24074;49.254;6.702;2024-01-10T07:06:12;13.47;;;8.40;;
9950;SDS011;24074;49.254;6.702;2024-01-10T07:08:40;10.63;;;7.70;;
9950;SDS011;24074;49.254;6.702;2024-01-10T07:11:07;11.53;;;7.83;;
9950;SDS011;24074;49.254;6.702;2024-01-10T07:13:34;11.63;;;7.67;;
9950;SDS011;24074;49.254;6.702;2024-01-10T07:16:01;10.23;;;7.77;;
9950;SDS011;24074;49.254;6.702;2024-01-10T07:18:27;10.47;;;7.97;;
9950;SDS011;24074;49.254;6.702;2024-01-10T07:20:53;11.67;;;8.17;;
9950;SDS011;24074;49.254;6.702;2024-01-10T07:23:19;11.43;;;8.03;;
9950;SDS011;24074;49.254;6.702;2024-01-10T07:25:48;12.17;;;7.93;;
9950;SDS011;24074;49.254;6.702;2024-01-10T07:28:14;11.47;;;7.80;;
9950;SDS011;24074;49.254;6.702;2024-01-10T07:30:44;11.90;;;8.13;;
9950;SDS011;24074;49.254;6.702;2024-01-10T07:33:10;12.60;;;8.30;;
9950;SDS011;24074;49.254;6.702;2024-01-10T07:35:36;10.90;;;7.83;;
9950;SDS011;24074;49.254;6.702;2024-01-10T07:38:03;11.20;;;7.83;;
9950;SDS011;24074;49.254;6.702;2024-01-10T07:40:32;13.93;;;8.33;;
9950;SDS011;24074;49.254;6.702;2024-01-10T07:42:58;12.63;;;7.67;;
9950;SDS011;24074;49.254;6.702;2024-01-10T07:45:24;10.10;;;7.87;;
9950;SDS011;24074;49.254;6.702;2024-01-10T07:47:49;12.10;;;8.60;;
9950;SDS011;24074;49.254;6.702;2024-01-10T07:50:18;11.10;;;7.17;;
9950;SDS011;24074;49.254;6.702;2024-01-10T07:52:44;13.23;;;8.57;;
9950;SDS011;24074;49.254;6.702;2024-01-10T07:55:13;13.70;;;8.23;;
9950;SDS011;24074;49.254;6.702;2024-01-10T07:57:39;13.30;;;8.33;;
9950;SDS011;24074;49.254;6.702;2024-01-10T08:00:07;11.60;;;8.43;;
9950;SDS011;24074;49.254;6.702;2024-01-10T08:02:36;11.93;;;7.63;;
9950;SDS011;24074;49.254;6.702;2024-01-10T08:05:03;12.13;;;8.43;;
9950;SDS011;24074;49.254;6.702;2024-01-10T08:07:33;12.27;;;8.60;;
9950;SDS011;24074;49.254;6.702;2024-01-10T08:10:05;13.20;;;8.37;;
9950;SDS011;24074;49.254;6.702;2024-01-10T08:12:31;12.33;;;9.00;;
9950;SDS011;24074;49.254;6.702;2024-01-10T08:14:57;13.77;;;8.77;;
9950;SDS011;24074;49.254;6.702;2024-01-10T08:17:25;14.73;;;9.67;;
9950;SDS011;24074;49.254;6.702;2024-01-10T08:19:51;13.50;;;9.40;;
9950;SDS011;24074;49.254;6.702;2024-01-10T08:22:19;12.67;;;9.23;;
9950;SDS011;24074;49.254;6.702;2024-01-10T08:24:45;14.00;;;10.27;;
9950;SDS011;24074;49.254;6.702;2024-01-10T08:27:12;16.67;;;9.73;;
9950;SDS011;24074;49.254;6.702;2024-01-10T08:29:37;14.17;;;9.70;;
9950;SDS011;24074;49.254;6.702;2024-01-10T08:32:03;15.77;;;9.90;;
9950;SDS011;24074;49.254;6.702;2024-01-10T08:34:29;12.23;;;8.87;;
9950;SDS011;24074;49.254;6.702;2024-01-10T08:36:55;14.03;;;10.43;;
9950;SDS011;24074;49.254;6.702;2024-01-10T08:39:20;13.83;;;9.60;;
9950;SDS011;24074;49.254;6.702;2024-01-10T08:41:47;12.50;;;9.83;;
9950;SDS011;24074;49.254;6.702;2024-01-10T08:44:12;14.23;;;9.93;;
9950;SDS011;24074;49.254;6.702;2024-01-10T08:46:38;13.77;;;9.27;;
9950;SDS011;24074;49.254;6.702;2024-01-10T08:49:04;14.50;;;9.37;;
9950;SDS011;24074;49.254;6.702;2024-01-10T08:51:30;16.73;;;9.87;;
9950;SDS011;24074;49.254;6.702;2024-01-10T08:53:55;13.67;;;8.83;;
9950;SDS011;24074;49.254;6.702;2024-01-10T08:56:21;13.80;;;8.53;;
9950;SDS011;24074;49.254;6.702;2024-01-10T08:58:47;15.17;;;8.50;;
9950;SDS011;24074;49.254;6.702;2024-01-10T09:01:13;13.73;;;9.07;;
9950;SDS011;24074;49.254;6.702;2024-01-10T09:03:38;13.47;;;8.70;;
9950;SDS011;24074;49.254;6.702;2024-01-10T09:06:04;12.90;;;8.50;;
9950;SDS011;24074;49.254;6.702;2024-01-10T09:08:33;13.97;;;7.70;;
9950;SDS011;24074;49.254;6.702;2024-01-10T09:10:59;11.70;;;7.60;;
9950;SDS011;24074;49.254;6.702;2024-01-10T09:13:25;13.17;;;7.63;;
9950;SDS011;24074;49.254;6.702;2024-01-10T09:15:50;11.93;;;8.03;;
9950;SDS011;24074;49.254;6.702;2024-01-10T09:18:16;12.50;;;8.13;;
9950;SDS011;24074;49.254;6.702;2024-01-10T09:20:42;13.00;;;8.80;;
9950;SDS011;24074;49.254;6.702;2024-01-10T09:23:13;12.60;;;8.43;;
9950;SDS011;24074;49.254;6.702;2024-01-10T09:25:40;14.17;;;8.40;;
9950;SDS011;24074;49.254;6.702;2024-01-10T09:28:09;9.23;;;6.73;;
9950;SDS011;24074;49.254;6.702;2024-01-10T09:30:35;14.37;;;9.30;;
9950;SDS011;24074;49.254;6.702;2024-01-10T09:33:00;12.13;;;9.07;;
9950;SDS011;24074;49.254;6.702;2024-01-10T09:35:26;13.00;;;9.33;;
9950;SDS011;24074;49.254;6.702;2024-01-10T09:37:51;11.77;;;8.97;;
9950;SDS011;24074;49.254;6.702;2024-01-10T09:40:18;10.53;;;7.07;;
9950;SDS011;24074;49.254;6.702;2024-01-10T09:42:47;15.10;;;9.07;;
9950;SDS011;24074;49.254;6.702;2024-01-10T09:45:14;15.33;;;9.67;;
9950;SDS011;24074;49.254;6.702;2024-01-10T09:47:42;13.37;;;8.77;;
9950;SDS011;24074;49.254;6.702;2024-01-10T09:50:10;15.20;;;9.37;;
9950;SDS011;24074;49.254;6.702;2024-01-10T09:52:39;12.60;;;8.93;;
9950;SDS011;24074;49.254;6.702;2024-01-10T09:55:11;12.57;;;8.97;;
9950;SDS011;24074;49.254;6.702;2024-01-10T09:57:38;13.67;;;8.77;;
9950;SDS011;24074;49.254;6.702;2024-01-10T10:00:05;16.37;;;9.00;;
9950;SDS011;24074;49.254;6.702;2024-01-10T10:02:35;13.07;;;8.40;;
9950;SDS011;24074;49.254;6.702;2024-01-10T10:05:03;12.20;;;8.07;;
9950;SDS011;24074;49.254;6.702;2024-01-10T10:10:35;14.50;;;9.70;;
9950;SDS011;24074;49.254;6.702;2024-01-10T10:13:00;13.37;;;8.37;;
9950;SDS011;24074;49.254;6.702;2024-01-10T10:15:27;13.40;;;9.40;;
9950;SDS011;24074;49.254;6.702;2024-01-10T10:17:53;14.17;;;8.23;;
9950;SDS011;24074;49.254;6.702;2024-01-10T10:20:26;13.70;;;8.87;;
9950;SDS011;24074;49.254;6.702;2024-01-10T10:22:57;14.60;;;8.90;;
9950;SDS011;24074;49.254;6.702;2024-01-10T10:25:26;8.37;;;5.43;;
9950;SDS011;24074;49.254;6.702;2024-01-10T10:27:53;13.90;;;9.00;;
9950;SDS011;24074;49.254;6.702;2024-01-10T10:30:19;13.27;;;8.80;;
9950;SDS011;24074;49.254;6.702;2024-01-10T10:32:44;13.30;;;8.23;;
9950;SDS011;24074;49.254;6.702;2024-01-10T10:35:10;13.53;;;8.83;;
9950;SDS011;24074;49.254;6.702;2024-01-10T10:37:35;13.77;;;9.53;;
9950;SDS011;24074;49.254;6.702;2024-01-10T10:40:01;13.73;;;8.90;;
9950;SDS011;24074;49.254;6.702;2024-01-10T10:42:26;13.17;;;8.43;;
9950;SDS011;24074;49.254;6.702;2024-01-10T10:45:01;11.20;;;7.97;;
9950;SDS011;24074;49.254;6.702;2024-01-10T10:47:33;13.13;;;9.10;;
9950;SDS011;24074;49.254;6.702;2024-01-10T10:50:02;15.13;;;10.20;;
9950;SDS011;24074;49.254;6.702;2024-01-10T10:52:30;13.97;;;10.10;;
9950;SDS011;24074;49.254;6.702;2024-01-10T10:54:56;15.23;;;9.33;;
9950;SDS011;24074;49.254;6.702;2024-01-10T10:57:25;16.07;;;10.17;;
9950;SDS011;24074;49.254;6.702;2024-01-10T10:59:52;13.83;;;9.43;;
9950;SDS011;24074;49.254;6.702;2024-01-10T11:02:20;14.50;;;9.53;;
9950;SDS011;24074;49.254;6.702;2024-01-10T11:04:48;15.37;;;10.00;;
9950;SDS011;24074;49.254;6.702;2024-01-10T11:07:14;14.03;;;6.47;;
9950;SDS011;24074;49.254;6.702;2024-01-10T11:09:40;15.87;;;10.60;;
9950;SDS011;24074;49.254;6.702;2024-01-10T11:12:14;14.00;;;9.10;;
9950;SDS011;24074;49.254;6.702;2024-01-10T11:26:07;13.60;;;9.33;;
9950;SDS011;24074;49.254;6.702;2024-01-10T11:28:35;14.47;;;8.77;;
9950;SDS011;24074;49.254;6.702;2024-01-10T11:31:03;13.20;;;6.87;;
9950;SDS011;24074;49.254;6.702;2024-01-10T11:33:31;21.70;;;11.73;;
9950;SDS011;24074;49.254;6.702;2024-01-10T11:36:16;25.27;;;14.07;;
9950;SDS011;24074;49.254;6.702;2024-01-10T11:46:35;17.70;;;11.17;;
9950;SDS011;24074;49.254;6.702;2024-01-10T11:49:03;14.80;;;9.93;;
9950;SDS011;24074;49.254;6.702;2024-01-10T11:51:32;14.83;;;8.90;;
9950;SDS011;24074;49.254;6.702;2024-01-10T11:53:57;12.60;;;9.03;;
9950;SDS011;24074;49.254;6.702;2024-01-10T11:56:23;14.43;;;8.93;;
9950;SDS011;24074;49.254;6.702;2024-01-10T11:59:07;18.27;;;7.93;;
9950;SDS011;24074;49.254;6.702;2024-01-10T12:01:35;13.27;;;7.90;;
9950;SDS011;24074;49.254;6.702;2024-01-10T12:04:02;9.67;;;6.87;;
9950;SDS011;24074;49.254;6.702;2024-01-10T12:06:31;14.90;;;9.80;;
9950;SDS011;24074;49.254;6.702;2024-01-10T12:08:57;14.93;;;9.50;;
9950;SDS011;24074;49.254;6.702;2024-01-10T12:11:24;14.43;;;8.87;;
9950;SDS011;24074;49.254;6.702;2024-01-10T12:13:50;16.93;;;9.50;;
9950;SDS011;24074;49.254;6.702;2024-01-10T12:16:16;15.90;;;8.67;;
9950;SDS011;24074;49.254;6.702;2024-01-10T12:18:43;15.87;;;9.73;;
9950;SDS011;24074;49.254;6.702;2024-01-10T12:21:09;15.43;;;9.67;;
9950;SDS011;24074;49.254;6.702;2024-01-10T12:23:36;11.03;;;7.43;;
9950;SDS011;24074;49.254;6.702;2024-01-10T12:26:03;11.03;;;6.10;;
9950;SDS011;24074;49.254;6.702;2024-01-10T12:28:32;12.07;;;6.77;;
9950;SDS011;24074;49.254;6.702;2024-01-10T12:30:58;16.33;;;9.87;;
9950;SDS011;24074;49.254;6.702;2024-01-10T12:33:24;15.97;;;9.60;;
9950;SDS011;24074;49.254;6.702;2024-01-10T12:38:34;12.53;;;8.83;;
9950;SDS011;24074;49.254;6.702;2024-01-10T12:41:01;11.63;;;6.80;;
9950;SDS011;24074;49.254;6.702;2024-01-10T12:43:28;16.77;;;9.90;;
9950;SDS011;24074;49.254;6.702;2024-01-10T12:48:32;9.13;;;6.13;;
9950;SDS011;24074;49.254;6.702;2024-01-10T12:51:02;14.80;;;10.00;;
9950;SDS011;24074;49.254;6.702;2024-01-10T12:53:35;12.53;;;7.97;;
9950;SDS011;24074;49.254;6.702;2024-01-10T12:56:08;13.57;;;9.73;;
9950;SDS011;24074;49.254;6.702;2024-01-10T12:58:38;16.70;;;11.03;;
9950;SDS011;24074;49.254;6.702;2024-01-10T13:01:04;15.93;;;10.67;;
9950;SDS011;24074;49.254;6.702;2024-01-10T13:03:30;15.93;;;10.30;;
9950;SDS011;24074;49.254;6.702;2024-01-10T13:05:56;16.00;;;10.13;;
9950;SDS011;24074;49.254;6.702;2024-01-10T13:08:23;20.10;;;11.43;;
9950;SDS011;24074;49.254;6.702;2024-01-10T13:10:52;22.57;;;13.63;;
9950;SDS011;24074;49.254;6.702;2024-01-10T13:13:18;17.70;;;11.10;;
9950;SDS011;24074;49.254;6.702;2024-01-10T13:15:46;18.50;;;12.07;;
9950;SDS011;24074;49.254;6.702;2024-01-10T13:18:12;22.50;;;12.33;;
9950;SDS011;24074;49.254;6.702;2024-01-10T13:20:39;16.90;;;11.63;;
9950;SDS011;24074;49.254;6.702;2024-01-10T13:23:05;19.33;;;11.50;;
9950;SDS011;24074;49.254;6.702;2024-01-10T13:25:31;14.07;;;9.30;;
9950;SDS011;24074;49.254;6.702;2024-01-10T13:27:56;16.33;;;9.63;;
9950;SDS011;24074;49.254;6.702;2024-01-10T13:30:22;14.17;;;8.57;;
9950;SDS011;24074;49.254;6.702;2024-01-10T13:32:48;12.03;;;8.10;;
9950;SDS011;24074;49.254;6.702;2024-01-10T13:35:14;15.80;;;9.33;;
9950;SDS011;24074;49.254;6.702;2024-01-10T13:37:41;15.70;;;10.60;;
9950;SDS011;24074;49.254;6.702;2024-01-10T13:40:10;14.47;;;9.77;;
9950;SDS011;24074;49.254;6.702;2024-01-10T13:42:38;15.40;;;9.67;;
9950;SDS011;24074;49.254;6.702;2024-01-10T13:45:05;15.63;;;9.80;;
9950;SDS011;24074;49.254;6.702;2024-01-10T13:47:31;13.97;;;9.70;;
9950;SDS011;24074;49.254;6.702;2024-01-10T13:50:00;13.60;;;8.83;;
9950;SDS011;24074;49.254;6.702;2024-01-10T13:52:28;11.70;;;7.43;;
9950;SDS011;24074;49.254;6.702;2024-01-10T13:54:53;16.63;;;10.80;;
9950;SDS011;24074;49.254;6.702;2024-01-10T13:57:19;14.53;;;9.60;;
9950;SDS011;24074;49.254;6.702;2024-01-10T13:59:47;15.57;;;10.60;;
9950;SDS011;24074;49.254;6.702;2024-01-10T14:02:14;15.23;;;10.17;;
9950;SDS011;24074;49.254;6.702;2024-01-10T14:04:39;14.50;;;9.70;;
9950;SDS011;24074;49.254;6.702;2024-01-10T14:07:06;14.97;;;10.50;;
9950;SDS011;24074;49.254;6.702;2024-01-10T14:09:31;16.93;;;10.63;;
9950;SDS011;24074;49.254;6.702;2024-01-10T14:11:57;16.03;;;10.00;;
9950;SDS011;24074;49.254;6.702;2024-01-10T14:14:23;16.63;;;10.43;;
9950;SDS011;24074;49.254;6.702;2024-01-10T14:16:48;15.20;;;10.13;;
9950;SDS011;24074;49.254;6.702;2024-01-10T14:19:14;16.23;;;9.63;;
9950;SDS011;24074;49.254;6.702;2024-01-10T14:21:42;14.53;;;8.77;;
9950;SDS011;24074;49.254;6.702;2024-01-10T14:24:07;15.80;;;10.40;;
9950;SDS011;24074;49.254;6.702;2024-01-10T14:26:33;15.90;;;10.67;;
9950;SDS011;24074;49.254;6.702;2024-01-10T14:29:00;15.67;;;10.77;;
9950;SDS011;24074;49.254;6.702;2024-01-10T14:31:28;15.40;;;10.77;;
9950;SDS011;24074;49.254;6.702;2024-01-10T14:33:54;17.23;;;11.53;;
9950;SDS011;24074;49.254;6.702;2024-01-10T14:36:23;17.07;;;10.73;;
9950;SDS011;24074;49.254;6.702;2024-01-10T14:38:48;14.23;;;9.67;;
9950;SDS011;24074;49.254;6.702;2024-01-10T14:41:15;14.00;;;9.87;;
9950;SDS011;24074;49.254;6.702;2024-01-10T14:43:41;16.10;;;10.47;;
9950;SDS011;24074;49.254;6.702;2024-01-10T14:46:06;16.87;;;10.63;;
9950;SDS011;24074;49.254;6.702;2024-01-10T14:48:32;16.63;;;10.57;;
9950;SDS011;24074;49.254;6.702;2024-01-10T14:51:00;16.93;;;10.90;;
9950;SDS011;24074;49.254;6.702;2024-01-10T14:53:26;15.87;;;11.00;;
9950;SDS011;24074;49.254;6.702;2024-01-10T14:55:52;15.43;;;10.47;;
9950;SDS011;24074;49.254;6.702;2024-01-10T14:58:18;17.60;;;11.10;;
9950;SDS011;24074;49.254;6.702;2024-01-10T15:00:44;17.50;;;11.17;;
9950;SDS011;24074;49.254;6.702;2024-01-10T15:03:11;15.07;;;10.83;;
9950;SDS011;24074;49.254;6.702;2024-01-10T15:05:36;18.93;;;11.27;;
9950;SDS011;24074;49.254;6.702;2024-01-10T15:08:04;17.23;;;11.10;;
9950;SDS011;24074;49.254;6.702;2024-01-10T15:10:34;23.70;;;14.40;;
9950;SDS011;24074;49.254;6.702;2024-01-10T15:13:12;20.97;;;12.83;;